Airfield :







YOU CAN JOIN US ON...

 
LOGIN :

Register | Disclaimer

   EN    FR    IT 

 









Legend :    VFR   Marginal VFR   IFR   Intensive IFR   Very Intensive IFR
Visi :
Ceiling :
>= 8 km
>= 3000ft
5 to 8 km
1000 to 3000 ft
1500m to 5 km
500 to 1000 ft
800 to 1500m
200 to 500 ft
< 800m
< 200 ft
Symbols :   Thunderstorms  Fog  Heavy snow  Heavy precipitations  Wind > 20 kt






- Airport Elevation : 112 ft
- IATA code : UAK


BGBW - Narsarsuak

CURRENT METAR :
  • 291150Z 06005KT 9999 FEW025 M11/M16 Q0995

EXPIRED METARs :
  • 291050Z 06004KT 9999 FEW200 M13/M17 Q0995
  • 290950Z AUTO 06004KT 9999NDV NCD M12/M17 Q0994

TAF TAF BGBW
Valid from the 29 at 12:00 until the 29 at 21:00 UTC


291131Z 2912/2921 VRB08KT 9999 FEW030 SCT150



MET'MAP, your aeronautical weather chart ! - Copyright ORBIFLY December 2007 - Disclaimer

ORBIFLY MET'MAP TEAM :

Programming & Development : Alexandra Zaïnal
Concept & original design : Baudouin d'Aumeries
Assistance for programming : Marc-Olivier Méhu
Technical & hardware support : Manuel Goepfert

Contact : metmap@orbifly.com




SOURCES & CREDITS :

   NOAA